sensor_id;sensor_type;location;lat;lon;timestamp;P1;durP1;ratioP1;P2;durP2;ratioP2
13493;SDS011;6819;50.886;4.332;2023-04-15T00:01:52;6.68;;;3.10;;
13493;SDS011;6819;50.886;4.332;2023-04-15T00:04:18;5.85;;;2.97;;
13493;SDS011;6819;50.886;4.332;2023-04-15T00:06:51;5.63;;;3.20;;
13493;SDS011;6819;50.886;4.332;2023-04-15T00:09:17;6.95;;;3.28;;
13493;SDS011;6819;50.886;4.332;2023-04-15T00:11:44;8.05;;;2.90;;
13493;SDS011;6819;50.886;4.332;2023-04-15T00:14:10;4.50;;;3.22;;
13493;SDS011;6819;50.886;4.332;2023-04-15T00:16:36;5.53;;;3.58;;
13493;SDS011;6819;50.886;4.332;2023-04-15T00:19:02;7.65;;;3.17;;
13493;SDS011;6819;50.886;4.332;2023-04-15T00:21:29;6.57;;;3.40;;
13493;SDS011;6819;50.886;4.332;2023-04-15T00:23:55;4.35;;;2.55;;
13493;SDS011;6819;50.886;4.332;2023-04-15T00:26:21;6.75;;;2.83;;
13493;SDS011;6819;50.886;4.332;2023-04-15T00:28:47;5.30;;;2.80;;
13493;SDS011;6819;50.886;4.332;2023-04-15T00:31:13;6.60;;;3.30;;
13493;SDS011;6819;50.886;4.332;2023-04-15T00:33:39;4.68;;;3.03;;
13493;SDS011;6819;50.886;4.332;2023-04-15T00:36:05;6.80;;;3.58;;
13493;SDS011;6819;50.886;4.332;2023-04-15T00:38:32;5.93;;;3.13;;
13493;SDS011;6819;50.886;4.332;2023-04-15T00:40:58;6.03;;;3.08;;
13493;SDS011;6819;50.886;4.332;2023-04-15T00:43:24;5.50;;;2.92;;
13493;SDS011;6819;50.886;4.332;2023-04-15T00:45:52;6.07;;;2.65;;
13493;SDS011;6819;50.886;4.332;2023-04-15T00:48:18;6.68;;;2.55;;
13493;SDS011;6819;50.886;4.332;2023-04-15T00:50:45;3.88;;;2.58;;
13493;SDS011;6819;50.886;4.332;2023-04-15T00:53:11;3.33;;;2.30;;
13493;SDS011;6819;50.886;4.332;2023-04-15T00:55:37;6.80;;;2.50;;
13493;SDS011;6819;50.886;4.332;2023-04-15T00:58:03;5.22;;;2.47;;
13493;SDS011;6819;50.886;4.332;2023-04-15T01:00:29;5.03;;;2.80;;
13493;SDS011;6819;50.886;4.332;2023-04-15T01:02:55;3.45;;;2.42;;
13493;SDS011;6819;50.886;4.332;2023-04-15T01:05:21;3.70;;;2.22;;
13493;SDS011;6819;50.886;4.332;2023-04-15T01:07:47;4.22;;;2.13;;
13493;SDS011;6819;50.886;4.332;2023-04-15T01:10:13;3.55;;;2.50;;
13493;SDS011;6819;50.886;4.332;2023-04-15T01:12:39;4.35;;;2.70;;
13493;SDS011;6819;50.886;4.332;2023-04-15T01:15:06;4.03;;;2.80;;
13493;SDS011;6819;50.886;4.332;2023-04-15T01:17:33;5.22;;;2.13;;
13493;SDS011;6819;50.886;4.332;2023-04-15T01:19:59;5.13;;;2.35;;
13493;SDS011;6819;50.886;4.332;2023-04-15T01:22:26;4.65;;;2.30;;
13493;SDS011;6819;50.886;4.332;2023-04-15T01:25:00;5.65;;;2.38;;
13493;SDS011;6819;50.886;4.332;2023-04-15T01:27:28;2.70;;;1.83;;
13493;SDS011;6819;50.886;4.332;2023-04-15T01:29:55;4.50;;;2.10;;
13493;SDS011;6819;50.886;4.332;2023-04-15T01:32:21;3.75;;;2.17;;
13493;SDS011;6819;50.886;4.332;2023-04-15T01:34:47;5.07;;;2.25;;
13493;SDS011;6819;50.886;4.332;2023-04-15T01:37:13;2.63;;;2.00;;
13493;SDS011;6819;50.886;4.332;2023-04-15T01:39:39;4.72;;;1.85;;
13493;SDS011;6819;50.886;4.332;2023-04-15T01:42:05;4.55;;;2.33;;
13493;SDS011;6819;50.886;4.332;2023-04-15T01:44:31;4.30;;;2.10;;
13493;SDS011;6819;50.886;4.332;2023-04-15T01:46:57;3.72;;;2.25;;
13493;SDS011;6819;50.886;4.332;2023-04-15T01:49:24;5.85;;;2.08;;
13493;SDS011;6819;50.886;4.332;2023-04-15T01:51:51;5.10;;;2.85;;
13493;SDS011;6819;50.886;4.332;2023-04-15T01:54:18;5.85;;;3.28;;
13493;SDS011;6819;50.886;4.332;2023-04-15T01:56:44;7.43;;;3.63;;
13493;SDS011;6819;50.886;4.332;2023-04-15T01:59:10;6.78;;;3.88;;
13493;SDS011;6819;50.886;4.332;2023-04-15T02:01:36;10.65;;;4.43;;
13493;SDS011;6819;50.886;4.332;2023-04-15T02:04:02;10.30;;;5.18;;
13493;SDS011;6819;50.886;4.332;2023-04-15T02:06:28;11.55;;;5.00;;
13493;SDS011;6819;50.886;4.332;2023-04-15T02:08:54;14.45;;;5.97;;
13493;SDS011;6819;50.886;4.332;2023-04-15T02:11:20;10.45;;;4.70;;
13493;SDS011;6819;50.886;4.332;2023-04-15T02:13:47;22.08;;;7.05;;
13493;SDS011;6819;50.886;4.332;2023-04-15T02:16:16;15.30;;;6.20;;
13493;SDS011;6819;50.886;4.332;2023-04-15T02:18:46;21.08;;;7.00;;
13493;SDS011;6819;50.886;4.332;2023-04-15T02:21:12;19.17;;;6.75;;
13493;SDS011;6819;50.886;4.332;2023-04-15T02:23:38;20.35;;;7.40;;
13493;SDS011;6819;50.886;4.332;2023-04-15T02:26:04;18.92;;;6.53;;
13493;SDS011;6819;50.886;4.332;2023-04-15T02:28:30;19.60;;;8.15;;
13493;SDS011;6819;50.886;4.332;2023-04-15T02:30:56;20.13;;;6.82;;
13493;SDS011;6819;50.886;4.332;2023-04-15T02:33:23;22.05;;;7.63;;
13493;SDS011;6819;50.886;4.332;2023-04-15T02:35:49;23.75;;;8.77;;
13493;SDS011;6819;50.886;4.332;2023-04-15T02:38:17;23.25;;;8.75;;
13493;SDS011;6819;50.886;4.332;2023-04-15T02:40:43;25.02;;;10.25;;
13493;SDS011;6819;50.886;4.332;2023-04-15T02:43:09;22.20;;;8.75;;
13493;SDS011;6819;50.886;4.332;2023-04-15T02:45:35;22.33;;;7.93;;
13493;SDS011;6819;50.886;4.332;2023-04-15T02:48:01;23.60;;;9.18;;
13493;SDS011;6819;50.886;4.332;2023-04-15T02:50:30;31.08;;;9.52;;
13493;SDS011;6819;50.886;4.332;2023-04-15T02:52:56;24.50;;;10.13;;
13493;SDS011;6819;50.886;4.332;2023-04-15T02:55:22;27.35;;;11.18;;
13493;SDS011;6819;50.886;4.332;2023-04-15T02:57:48;24.20;;;8.38;;
13493;SDS011;6819;50.886;4.332;2023-04-15T03:00:14;26.77;;;10.02;;
13493;SDS011;6819;50.886;4.332;2023-04-15T03:02:40;25.20;;;8.55;;
13493;SDS011;6819;50.886;4.332;2023-04-15T03:05:10;21.02;;;8.95;;
13493;SDS011;6819;50.886;4.332;2023-04-15T03:07:36;18.45;;;7.85;;
13493;SDS011;6819;50.886;4.332;2023-04-15T03:10:04;16.88;;;8.13;;
13493;SDS011;6819;50.886;4.332;2023-04-15T03:12:30;18.02;;;7.47;;
13493;SDS011;6819;50.886;4.332;2023-04-15T03:14:56;20.85;;;8.50;;
13493;SDS011;6819;50.886;4.332;2023-04-15T03:17:22;20.55;;;8.27;;
13493;SDS011;6819;50.886;4.332;2023-04-15T03:19:48;16.75;;;7.13;;
13493;SDS011;6819;50.886;4.332;2023-04-15T03:22:14;18.77;;;7.88;;
13493;SDS011;6819;50.886;4.332;2023-04-15T03:24:40;17.73;;;7.55;;
13493;SDS011;6819;50.886;4.332;2023-04-15T03:27:06;19.10;;;7.75;;
13493;SDS011;6819;50.886;4.332;2023-04-15T03:29:33;21.02;;;7.63;;
13493;SDS011;6819;50.886;4.332;2023-04-15T03:31:59;17.48;;;7.05;;
13493;SDS011;6819;50.886;4.332;2023-04-15T03:34:25;13.40;;;7.50;;
13493;SDS011;6819;50.886;4.332;2023-04-15T03:36:51;15.18;;;7.25;;
13493;SDS011;6819;50.886;4.332;2023-04-15T03:39:17;16.55;;;7.25;;
13493;SDS011;6819;50.886;4.332;2023-04-15T03:41:44;12.23;;;7.35;;
13493;SDS011;6819;50.886;4.332;2023-04-15T03:44:10;14.13;;;6.72;;
13493;SDS011;6819;50.886;4.332;2023-04-15T03:46:36;13.77;;;6.90;;
13493;SDS011;6819;50.886;4.332;2023-04-15T03:49:02;12.60;;;6.57;;
13493;SDS011;6819;50.886;4.332;2023-04-15T03:51:28;13.02;;;6.97;;
13493;SDS011;6819;50.886;4.332;2023-04-15T03:53:55;14.73;;;6.43;;
13493;SDS011;6819;50.886;4.332;2023-04-15T03:56:22;11.43;;;6.10;;
13493;SDS011;6819;50.886;4.332;2023-04-15T03:58:48;13.10;;;7.35;;
13493;SDS011;6819;50.886;4.332;2023-04-15T04:01:15;12.00;;;6.38;;
13493;SDS011;6819;50.886;4.332;2023-04-15T04:03:41;15.65;;;7.03;;
13493;SDS011;6819;50.886;4.332;2023-04-15T04:06:07;13.95;;;6.28;;
13493;SDS011;6819;50.886;4.332;2023-04-15T04:08:34;14.57;;;6.13;;
13493;SDS011;6819;50.886;4.332;2023-04-15T04:11:00;11.90;;;6.43;;
13493;SDS011;6819;50.886;4.332;2023-04-15T04:13:26;10.93;;;6.38;;
13493;SDS011;6819;50.886;4.332;2023-04-15T04:15:52;10.13;;;6.38;;
13493;SDS011;6819;50.886;4.332;2023-04-15T04:18:18;12.73;;;6.85;;
13493;SDS011;6819;50.886;4.332;2023-04-15T04:20:44;11.32;;;6.00;;
13493;SDS011;6819;50.886;4.332;2023-04-15T04:23:10;12.50;;;5.95;;
13493;SDS011;6819;50.886;4.332;2023-04-15T04:25:36;9.57;;;5.72;;
13493;SDS011;6819;50.886;4.332;2023-04-15T04:28:03;12.15;;;5.97;;
13493;SDS011;6819;50.886;4.332;2023-04-15T04:30:29;13.57;;;5.80;;
13493;SDS011;6819;50.886;4.332;2023-04-15T04:32:55;9.70;;;6.30;;
13493;SDS011;6819;50.886;4.332;2023-04-15T04:35:21;13.48;;;5.97;;
13493;SDS011;6819;50.886;4.332;2023-04-15T04:37:47;9.98;;;5.53;;
13493;SDS011;6819;50.886;4.332;2023-04-15T04:40:13;12.48;;;5.68;;
13493;SDS011;6819;50.886;4.332;2023-04-15T04:42:39;10.95;;;5.80;;
13493;SDS011;6819;50.886;4.332;2023-04-15T04:45:05;10.77;;;6.15;;
13493;SDS011;6819;50.886;4.332;2023-04-15T04:47:32;10.85;;;5.53;;
13493;SDS011;6819;50.886;4.332;2023-04-15T04:49:58;12.82;;;5.65;;
13493;SDS011;6819;50.886;4.332;2023-04-15T04:52:24;15.00;;;5.80;;
13493;SDS011;6819;50.886;4.332;2023-04-15T04:54:50;12.23;;;6.03;;
13493;SDS011;6819;50.886;4.332;2023-04-15T04:57:16;8.77;;;5.30;;
13493;SDS011;6819;50.886;4.332;2023-04-15T04:59:42;8.68;;;5.05;;
13493;SDS011;6819;50.886;4.332;2023-04-15T05:02:08;12.15;;;5.00;;
13493;SDS011;6819;50.886;4.332;2023-04-15T05:04:34;12.68;;;5.28;;
13493;SDS011;6819;50.886;4.332;2023-04-15T05:07:01;8.77;;;5.00;;
13493;SDS011;6819;50.886;4.332;2023-04-15T05:09:27;9.68;;;4.90;;
13493;SDS011;6819;50.886;4.332;2023-04-15T05:11:56;14.75;;;5.07;;
13493;SDS011;6819;50.886;4.332;2023-04-15T05:14:22;10.55;;;4.78;;
13493;SDS011;6819;50.886;4.332;2023-04-15T05:16:48;11.68;;;5.38;;
13493;SDS011;6819;50.886;4.332;2023-04-15T05:19:14;6.97;;;5.00;;
13493;SDS011;6819;50.886;4.332;2023-04-15T05:21:40;14.00;;;5.57;;
13493;SDS011;6819;50.886;4.332;2023-04-15T05:24:06;11.93;;;5.25;;
13493;SDS011;6819;50.886;4.332;2023-04-15T05:26:32;9.38;;;5.18;;
13493;SDS011;6819;50.886;4.332;2023-04-15T05:28:58;9.23;;;6.07;;
13493;SDS011;6819;50.886;4.332;2023-04-15T05:31:24;12.57;;;5.15;;
13493;SDS011;6819;50.886;4.332;2023-04-15T05:33:50;14.00;;;6.50;;
13493;SDS011;6819;50.886;4.332;2023-04-15T05:36:16;14.80;;;5.72;;
13493;SDS011;6819;50.886;4.332;2023-04-15T05:38:42;11.82;;;5.85;;
13493;SDS011;6819;50.886;4.332;2023-04-15T05:41:08;10.15;;;6.20;;
13493;SDS011;6819;50.886;4.332;2023-04-15T05:43:34;11.10;;;5.93;;
13493;SDS011;6819;50.886;4.332;2023-04-15T05:46:00;12.75;;;5.95;;
13493;SDS011;6819;50.886;4.332;2023-04-15T05:48:26;9.43;;;5.35;;
13493;SDS011;6819;50.886;4.332;2023-04-15T05:50:52;11.05;;;5.35;;
13493;SDS011;6819;50.886;4.332;2023-04-15T05:53:19;11.05;;;5.40;;
13493;SDS011;6819;50.886;4.332;2023-04-15T05:55:45;16.67;;;6.70;;
13493;SDS011;6819;50.886;4.332;2023-04-15T05:58:11;14.38;;;6.45;;
13493;SDS011;6819;50.886;4.332;2023-04-15T06:00:37;14.55;;;6.45;;
13493;SDS011;6819;50.886;4.332;2023-04-15T06:03:03;13.98;;;5.80;;
13493;SDS011;6819;50.886;4.332;2023-04-15T06:05:30;12.20;;;6.38;;
13493;SDS011;6819;50.886;4.332;2023-04-15T06:07:56;13.98;;;5.88;;
13493;SDS011;6819;50.886;4.332;2023-04-15T06:10:22;10.07;;;5.68;;
13493;SDS011;6819;50.886;4.332;2023-04-15T06:12:48;11.23;;;5.50;;
13493;SDS011;6819;50.886;4.332;2023-04-15T06:15:14;10.95;;;5.90;;
13493;SDS011;6819;50.886;4.332;2023-04-15T06:17:41;10.05;;;5.57;;
13493;SDS011;6819;50.886;4.332;2023-04-15T06:20:07;12.32;;;5.45;;
13493;SDS011;6819;50.886;4.332;2023-04-15T06:22:33;12.18;;;5.38;;
13493;SDS011;6819;50.886;4.332;2023-04-15T06:24:59;8.65;;;5.90;;
13493;SDS011;6819;50.886;4.332;2023-04-15T06:27:25;11.05;;;5.03;;
13493;SDS011;6819;50.886;4.332;2023-04-15T06:29:51;8.98;;;4.85;;
13493;SDS011;6819;50.886;4.332;2023-04-15T06:32:17;8.68;;;5.13;;
13493;SDS011;6819;50.886;4.332;2023-04-15T06:34:43;10.07;;;5.38;;
13493;SDS011;6819;50.886;4.332;2023-04-15T06:37:09;10.52;;;5.63;;
13493;SDS011;6819;50.886;4.332;2023-04-15T06:39:39;11.00;;;4.85;;
13493;SDS011;6819;50.886;4.332;2023-04-15T06:42:06;11.38;;;5.05;;
13493;SDS011;6819;50.886;4.332;2023-04-15T06:44:32;17.63;;;4.93;;
13493;SDS011;6819;50.886;4.332;2023-04-15T06:46:58;7.45;;;5.03;;
13493;SDS011;6819;50.886;4.332;2023-04-15T06:49:24;9.75;;;4.90;;
13493;SDS011;6819;50.886;4.332;2023-04-15T06:51:50;8.95;;;5.05;;
13493;SDS011;6819;50.886;4.332;2023-04-15T06:54:16;9.05;;;5.70;;
13493;SDS011;6819;50.886;4.332;2023-04-15T06:56:42;10.38;;;5.70;;
13493;SDS011;6819;50.886;4.332;2023-04-15T06:59:09;14.02;;;5.05;;
13493;SDS011;6819;50.886;4.332;2023-04-15T07:01:35;12.18;;;6.10;;
13493;SDS011;6819;50.886;4.332;2023-04-15T07:04:01;19.83;;;6.28;;
13493;SDS011;6819;50.886;4.332;2023-04-15T07:06:27;13.57;;;5.95;;
13493;SDS011;6819;50.886;4.332;2023-04-15T07:08:53;12.18;;;5.60;;
13493;SDS011;6819;50.886;4.332;2023-04-15T07:11:19;12.02;;;5.35;;
13493;SDS011;6819;50.886;4.332;2023-04-15T07:13:46;16.00;;;6.40;;
13493;SDS011;6819;50.886;4.332;2023-04-15T07:16:12;14.27;;;5.75;;
13493;SDS011;6819;50.886;4.332;2023-04-15T07:18:38;9.50;;;5.85;;
13493;SDS011;6819;50.886;4.332;2023-04-15T07:21:04;9.93;;;5.72;;
13493;SDS011;6819;50.886;4.332;2023-04-15T07:23:30;14.48;;;5.72;;
13493;SDS011;6819;50.886;4.332;2023-04-15T07:25:56;10.85;;;6.15;;
13493;SDS011;6819;50.886;4.332;2023-04-15T07:28:22;9.18;;;5.35;;
13493;SDS011;6819;50.886;4.332;2023-04-15T07:30:48;9.40;;;5.95;;
13493;SDS011;6819;50.886;4.332;2023-04-15T07:33:15;14.05;;;6.90;;
13493;SDS011;6819;50.886;4.332;2023-04-15T07:35:41;14.48;;;6.25;;
13493;SDS011;6819;50.886;4.332;2023-04-15T07:38:07;10.13;;;5.20;;
13493;SDS011;6819;50.886;4.332;2023-04-15T07:40:33;12.88;;;6.03;;
13493;SDS011;6819;50.886;4.332;2023-04-15T07:42:59;11.07;;;6.05;;
13493;SDS011;6819;50.886;4.332;2023-04-15T07:45:25;10.07;;;5.97;;
13493;SDS011;6819;50.886;4.332;2023-04-15T07:47:51;14.88;;;6.65;;
13493;SDS011;6819;50.886;4.332;2023-04-15T07:50:17;13.65;;;6.60;;
13493;SDS011;6819;50.886;4.332;2023-04-15T07:52:44;12.02;;;6.97;;
13493;SDS011;6819;50.886;4.332;2023-04-15T07:55:10;14.27;;;8.05;;
13493;SDS011;6819;50.886;4.332;2023-04-15T07:57:37;12.43;;;7.55;;
13493;SDS011;6819;50.886;4.332;2023-04-15T08:00:03;14.52;;;7.60;;
13493;SDS011;6819;50.886;4.332;2023-04-15T08:02:29;13.32;;;7.63;;
13493;SDS011;6819;50.886;4.332;2023-04-15T08:04:56;17.05;;;8.40;;
13493;SDS011;6819;50.886;4.332;2023-04-15T08:07:22;13.15;;;8.00;;
13493;SDS011;6819;50.886;4.332;2023-04-15T08:09:49;17.42;;;8.57;;
13493;SDS011;6819;50.886;4.332;2023-04-15T08:12:15;14.25;;;8.30;;
13493;SDS011;6819;50.886;4.332;2023-04-15T08:14:41;13.75;;;8.13;;
13493;SDS011;6819;50.886;4.332;2023-04-15T08:17:07;10.90;;;7.43;;
13493;SDS011;6819;50.886;4.332;2023-04-15T08:19:33;16.95;;;8.15;;
13493;SDS011;6819;50.886;4.332;2023-04-15T08:22:00;11.75;;;7.43;;
13493;SDS011;6819;50.886;4.332;2023-04-15T08:24:26;15.63;;;8.20;;
13493;SDS011;6819;50.886;4.332;2023-04-15T08:26:52;16.65;;;7.85;;
13493;SDS011;6819;50.886;4.332;2023-04-15T08:29:18;12.38;;;8.25;;
13493;SDS011;6819;50.886;4.332;2023-04-15T08:31:44;11.95;;;7.88;;
13493;SDS011;6819;50.886;4.332;2023-04-15T08:34:11;13.27;;;8.10;;
13493;SDS011;6819;50.886;4.332;2023-04-15T08:36:37;14.70;;;8.65;;
13493;SDS011;6819;50.886;4.332;2023-04-15T08:39:03;16.98;;;8.77;;
13493;SDS011;6819;50.886;4.332;2023-04-15T08:41:39;12.48;;;8.30;;
13493;SDS011;6819;50.886;4.332;2023-04-15T08:44:06;12.70;;;8.55;;
13493;SDS011;6819;50.886;4.332;2023-04-15T08:46:32;14.18;;;8.75;;
13493;SDS011;6819;50.886;4.332;2023-04-15T08:48:59;12.00;;;8.20;;
13493;SDS011;6819;50.886;4.332;2023-04-15T08:51:25;15.48;;;8.57;;
13493;SDS011;6819;50.886;4.332;2023-04-15T08:53:51;21.38;;;9.18;;
13493;SDS011;6819;50.886;4.332;2023-04-15T08:56:17;12.90;;;8.88;;
13493;SDS011;6819;50.886;4.332;2023-04-15T08:58:44;16.60;;;9.25;;
13493;SDS011;6819;50.886;4.332;2023-04-15T09:01:11;17.83;;;8.20;;
13493;SDS011;6819;50.886;4.332;2023-04-15T09:03:38;15.25;;;8.88;;
13493;SDS011;6819;50.886;4.332;2023-04-15T09:06:04;16.35;;;8.98;;
13493;SDS011;6819;50.886;4.332;2023-04-15T09:08:31;15.07;;;8.13;;
13493;SDS011;6819;50.886;4.332;2023-04-15T09:10:59;15.57;;;8.68;;
13493;SDS011;6819;50.886;4.332;2023-04-15T09:13:25;14.68;;;8.98;;
13493;SDS011;6819;50.886;4.332;2023-04-15T09:15:51;19.92;;;8.57;;
13493;SDS011;6819;50.886;4.332;2023-04-15T09:18:30;13.07;;;7.93;;
13493;SDS011;6819;50.886;4.332;2023-04-15T09:21:03;11.32;;;8.00;;
13493;SDS011;6819;50.886;4.332;2023-04-15T09:23:29;13.93;;;7.47;;
13493;SDS011;6819;50.886;4.332;2023-04-15T09:25:56;13.30;;;6.10;;
13493;SDS011;6819;50.886;4.332;2023-04-15T09:28:22;9.43;;;5.25;;
13493;SDS011;6819;50.886;4.332;2023-04-15T09:30:51;9.27;;;5.00;;
13493;SDS011;6819;50.886;4.332;2023-04-15T09:33:17;7.63;;;4.90;;
13493;SDS011;6819;50.886;4.332;2023-04-15T09:35:51;9.65;;;5.03;;
13493;SDS011;6819;50.886;4.332;2023-04-15T09:38:21;12.02;;;4.70;;
13493;SDS011;6819;50.886;4.332;2023-04-15T09:40:47;9.77;;;4.93;;
13493;SDS011;6819;50.886;4.332;2023-04-15T09:43:13;12.77;;;4.68;;
13493;SDS011;6819;50.886;4.332;2023-04-15T09:45:46;5.38;;;4.50;;
13493;SDS011;6819;50.886;4.332;2023-04-15T09:48:24;9.55;;;4.43;;
13493;SDS011;6819;50.886;4.332;2023-04-15T09:50:52;11.25;;;4.70;;
13493;SDS011;6819;50.886;4.332;2023-04-15T09:53:19;6.88;;;4.07;;
13493;SDS011;6819;50.886;4.332;2023-04-15T09:55:55;11.50;;;5.10;;
13493;SDS011;6819;50.886;4.332;2023-04-15T10:00:48;7.50;;;5.03;;
13493;SDS011;6819;50.886;4.332;2023-04-15T10:03:17;11.70;;;4.93;;
13493;SDS011;6819;50.886;4.332;2023-04-15T10:05:44;11.27;;;5.22;;
13493;SDS011;6819;50.886;4.332;2023-04-15T10:08:11;11.25;;;5.80;;
13493;SDS011;6819;50.886;4.332;2023-04-15T10:10:37;16.00;;;5.97;;
13493;SDS011;6819;50.886;4.332;2023-04-15T10:13:04;10.80;;;5.97;;
13493;SDS011;6819;50.886;4.332;2023-04-15T10:15:31;7.85;;;5.45;;
13493;SDS011;6819;50.886;4.332;2023-04-15T10:17:57;8.15;;;5.07;;
13493;SDS011;6819;50.886;4.332;2023-04-15T10:20:25;6.13;;;4.68;;
13493;SDS011;6819;50.886;4.332;2023-04-15T10:22:51;10.65;;;4.95;;
13493;SDS011;6819;50.886;4.332;2023-04-15T10:25:18;11.25;;;4.28;;
13493;SDS011;6819;50.886;4.332;2023-04-15T10:27:44;6.78;;;4.50;;
13493;SDS011;6819;50.886;4.332;2023-04-15T10:30:12;9.57;;;4.72;;
13493;SDS011;6819;50.886;4.332;2023-04-15T10:32:38;5.72;;;3.72;;
13493;SDS011;6819;50.886;4.332;2023-04-15T10:35:05;5.72;;;3.78;;
13493;SDS011;6819;50.886;4.332;2023-04-15T10:37:33;4.82;;;3.53;;
13493;SDS011;6819;50.886;4.332;2023-04-15T10:40:00;6.55;;;3.70;;
13493;SDS011;6819;50.886;4.332;2023-04-15T10:42:32;6.43;;;3.17;;
13493;SDS011;6819;50.886;4.332;2023-04-15T10:44:59;5.13;;;3.40;;
13493;SDS011;6819;50.886;4.332;2023-04-15T10:47:25;6.40;;;3.72;;
13493;SDS011;6819;50.886;4.332;2023-04-15T10:49:59;5.85;;;3.40;;
13493;SDS011;6819;50.886;4.332;2023-04-15T10:52:27;7.03;;;3.70;;
13493;SDS011;6819;50.886;4.332;2023-04-15T10:57:39;6.28;;;2.95;;
13493;SDS011;6819;50.886;4.332;2023-04-15T11:05:05;5.28;;;2.80;;
13493;SDS011;6819;50.886;4.332;2023-04-15T11:07:53;6.53;;;2.83;;
13493;SDS011;6819;50.886;4.332;2023-04-15T11:12:56;4.63;;;3.00;;
13493;SDS011;6819;50.886;4.332;2023-04-15T11:17:55;5.80;;;2.85;;
13493;SDS011;6819;50.886;4.332;2023-04-15T11:20:22;6.47;;;3.08;;
13493;SDS011;6819;50.886;4.332;2023-04-15T11:22:54;7.93;;;3.17;;
13493;SDS011;6819;50.886;4.332;2023-04-15T11:25:24;4.40;;;3.10;;
13493;SDS011;6819;50.886;4.332;2023-04-15T11:27:51;4.85;;;3.15;;
13493;SDS011;6819;50.886;4.332;2023-04-15T11:30:18;4.72;;;2.97;;
13493;SDS011;6819;50.886;4.332;2023-04-15T11:32:48;4.97;;;2.75;;
13493;SDS011;6819;50.886;4.332;2023-04-15T11:35:15;5.82;;;2.92;;
13493;SDS011;6819;50.886;4.332;2023-04-15T11:37:42;6.65;;;2.13;;
13493;SDS011;6819;50.886;4.332;2023-04-15T11:40:08;2.83;;;1.90;;
13493;SDS011;6819;50.886;4.332;2023-04-15T11:42:34;2.47;;;2.20;;
13493;SDS011;6819;50.886;4.332;2023-04-15T11:47:33;5.13;;;2.88;;
13493;SDS011;6819;50.886;4.332;2023-04-15T11:53:02;3.30;;;1.90;;
13493;SDS011;6819;50.886;4.332;2023-04-15T11:55:29;2.00;;;1.77;;
13493;SDS011;6819;50.886;4.332;2023-04-15T12:00:37;3.42;;;2.58;;
13493;SDS011;6819;50.886;4.332;2023-04-15T12:03:13;5.78;;;2.90;;
13493;SDS011;6819;50.886;4.332;2023-04-15T12:08:24;3.88;;;2.78;;
13493;SDS011;6819;50.886;4.332;2023-04-15T12:10:51;4.75;;;2.95;;
13493;SDS011;6819;50.886;4.332;2023-04-15T12:13:23;3.92;;;2.22;;
13493;SDS011;6819;50.886;4.332;2023-04-15T12:15:52;5.53;;;2.70;;
13493;SDS011;6819;50.886;4.332;2023-04-15T12:18:20;5.70;;;2.63;;
13493;SDS011;6819;50.886;4.332;2023-04-15T12:20:46;3.25;;;2.33;;
13493;SDS011;6819;50.886;4.332;2023-04-15T12:23:17;3.70;;;2.17;;
13493;SDS011;6819;50.886;4.332;2023-04-15T12:25:43;4.85;;;2.67;;
13493;SDS011;6819;50.886;4.332;2023-04-15T12:28:16;4.35;;;2.47;;
13493;SDS011;6819;50.886;4.332;2023-04-15T12:30:49;3.95;;;2.45;;
13493;SDS011;6819;50.886;4.332;2023-04-15T12:33:15;3.28;;;2.30;;
13493;SDS011;6819;50.886;4.332;2023-04-15T12:35:41;3.13;;;2.47;;
13493;SDS011;6819;50.886;4.332;2023-04-15T12:38:07;5.85;;;2.60;;
13493;SDS011;6819;50.886;4.332;2023-04-15T12:40:34;6.95;;;2.83;;
13493;SDS011;6819;50.886;4.332;2023-04-15T12:43:00;4.10;;;2.67;;
13493;SDS011;6819;50.886;4.332;2023-04-15T12:45:27;3.97;;;2.20;;
13493;SDS011;6819;50.886;4.332;2023-04-15T12:47:53;2.92;;;2.00;;
13493;SDS011;6819;50.886;4.332;2023-04-15T12:50:19;4.50;;;2.08;;
13493;SDS011;6819;50.886;4.332;2023-04-15T12:52:45;3.42;;;2.08;;
13493;SDS011;6819;50.886;4.332;2023-04-15T12:55:11;5.03;;;1.88;;
13493;SDS011;6819;50.886;4.332;2023-04-15T12:57:37;5.03;;;2.35;;
13493;SDS011;6819;50.886;4.332;2023-04-15T13:00:03;11.60;;;2.70;;
13493;SDS011;6819;50.886;4.332;2023-04-15T13:02:32;2.67;;;1.95;;
13493;SDS011;6819;50.886;4.332;2023-04-15T13:04:58;4.50;;;2.13;;
13493;SDS011;6819;50.886;4.332;2023-04-15T13:07:24;5.10;;;2.15;;
13493;SDS011;6819;50.886;4.332;2023-04-15T13:09:50;3.47;;;2.20;;
13493;SDS011;6819;50.886;4.332;2023-04-15T13:12:16;8.07;;;2.60;;
13493;SDS011;6819;50.886;4.332;2023-04-15T13:14:42;5.80;;;2.88;;
13493;SDS011;6819;50.886;4.332;2023-04-15T13:17:08;4.22;;;2.30;;
13493;SDS011;6819;50.886;4.332;2023-04-15T13:19:35;3.28;;;2.83;;
13493;SDS011;6819;50.886;4.332;2023-04-15T13:22:01;6.55;;;3.15;;
13493;SDS011;6819;50.886;4.332;2023-04-15T13:24:27;6.63;;;2.80;;
13493;SDS011;6819;50.886;4.332;2023-04-15T13:26:53;4.78;;;2.78;;
13493;SDS011;6819;50.886;4.332;2023-04-15T13:29:19;4.72;;;2.22;;
13493;SDS011;6819;50.886;4.332;2023-04-15T13:31:46;5.28;;;1.92;;
13493;SDS011;6819;50.886;4.332;2023-04-15T13:34:12;5.25;;;2.20;;
13493;SDS011;6819;50.886;4.332;2023-04-15T13:36:38;3.95;;;2.15;;
13493;SDS011;6819;50.886;4.332;2023-04-15T13:39:04;6.50;;;2.47;;
13493;SDS011;6819;50.886;4.332;2023-04-15T13:41:30;4.03;;;2.20;;
13493;SDS011;6819;50.886;4.332;2023-04-15T13:43:56;3.70;;;2.00;;
13493;SDS011;6819;50.886;4.332;2023-04-15T13:46:22;3.28;;;2.30;;
13493;SDS011;6819;50.886;4.332;2023-04-15T13:48:49;5.43;;;2.17;;
13493;SDS011;6819;50.886;4.332;2023-04-15T13:51:15;6.85;;;2.22;;
13493;SDS011;6819;50.886;4.332;2023-04-15T13:53:41;3.08;;;1.90;;
13493;SDS011;6819;50.886;4.332;2023-04-15T13:56:07;4.53;;;2.35;;
13493;SDS011;6819;50.886;4.332;2023-04-15T13:58:34;5.85;;;2.60;;
13493;SDS011;6819;50.886;4.332;2023-04-15T14:01:00;3.88;;;2.50;;
13493;SDS011;6819;50.886;4.332;2023-04-15T14:03:26;4.70;;;2.50;;
13493;SDS011;6819;50.886;4.332;2023-04-15T14:05:52;4.53;;;2.28;;
13493;SDS011;6819;50.886;4.332;2023-04-15T14:08:20;5.68;;;2.88;;
13493;SDS011;6819;50.886;4.332;2023-04-15T14:10:46;6.05;;;2.40;;
13493;SDS011;6819;50.886;4.332;2023-04-15T14:13:13;5.00;;;2.50;;
13493;SDS011;6819;50.886;4.332;2023-04-15T14:15:40;5.07;;;2.38;;
13493;SDS011;6819;50.886;4.332;2023-04-15T14:18:06;4.30;;;2.40;;
13493;SDS011;6819;50.886;4.332;2023-04-15T14:20:32;4.13;;;2.40;;
13493;SDS011;6819;50.886;4.332;2023-04-15T14:22:58;3.65;;;2.13;;
13493;SDS011;6819;50.886;4.332;2023-04-15T14:25:25;3.78;;;1.70;;
13493;SDS011;6819;50.886;4.332;2023-04-15T14:27:51;3.13;;;1.60;;
13493;SDS011;6819;50.886;4.332;2023-04-15T14:30:17;2.60;;;1.25;;
13493;SDS011;6819;50.886;4.332;2023-04-15T14:32:43;4.10;;;1.42;;
13493;SDS011;6819;50.886;4.332;2023-04-15T14:35:09;3.83;;;1.75;;
13493;SDS011;6819;50.886;4.332;2023-04-15T14:37:35;4.18;;;2.08;;
13493;SDS011;6819;50.886;4.332;2023-04-15T14:40:01;7.00;;;3.30;;
13493;SDS011;6819;50.886;4.332;2023-04-15T14:42:27;4.82;;;2.58;;
13493;SDS011;6819;50.886;4.332;2023-04-15T14:44:53;5.82;;;3.75;;
13493;SDS011;6819;50.886;4.332;2023-04-15T14:47:19;3.67;;;1.55;;
13493;SDS011;6819;50.886;4.332;2023-04-15T14:49:45;5.13;;;2.42;;
13493;SDS011;6819;50.886;4.332;2023-04-15T14:52:11;4.38;;;2.05;;
13493;SDS011;6819;50.886;4.332;2023-04-15T14:54:37;4.05;;;1.85;;
13493;SDS011;6819;50.886;4.332;2023-04-15T14:57:03;4.00;;;1.98;;
13493;SDS011;6819;50.886;4.332;2023-04-15T14:59:29;3.42;;;2.22;;
13493;SDS011;6819;50.886;4.332;2023-04-15T15:01:55;6.82;;;3.03;;
13493;SDS011;6819;50.886;4.332;2023-04-15T15:04:21;5.10;;;2.67;;
13493;SDS011;6819;50.886;4.332;2023-04-15T15:06:47;5.30;;;2.42;;
13493;SDS011;6819;50.886;4.332;2023-04-15T15:09:13;5.20;;;2.50;;
13493;SDS011;6819;50.886;4.332;2023-04-15T15:11:40;4.35;;;2.70;;
13493;SDS011;6819;50.886;4.332;2023-04-15T15:14:06;7.45;;;3.28;;
13493;SDS011;6819;50.886;4.332;2023-04-15T15:16:32;6.47;;;3.10;;
13493;SDS011;6819;50.886;4.332;2023-04-15T15:18:58;5.55;;;3.38;;